Time;durP1;ratioP1;P1;durP2;ratioP2;P2;SDS_P1;SDS_P2;PMS_P1;PMS_P2;Temp;Humidity;BMP_temperature;BMP_pressure;BME280_temperature;BME280_humidity;BME280_pressure;Samples;Min_cycle;Max_cycle;Signal;HPM_P1;HPM_P2
2023/09/12 00:00:38;;;;;;;40.80;27.90;;;;;;;16.86;99.92;99575.55;109377;1252;68922;-63
2023/09/12 00:03:34;;;;;;;38.30;26.80;;;;;;;16.85;99.84;99572.33;109421;1252;71441;-62
2023/09/12 00:06:21;;;;;;;37.80;27.00;;;;;;;16.86;99.95;99569.10;109287;1253;58249;-68
2023/09/12 00:09:08;;;;;;;38.40;26.30;;;;;;;16.85;99.87;99571.35;109439;1253;60243;-62
2023/09/12 00:11:55;;;;;;;32.00;23.50;;;;;;;16.82;99.92;99570.17;109383;1254;71685;-63
2023/09/12 00:14:42;;;;;;;36.00;23.20;;;;;;;16.80;99.92;99571.70;109284;1254;65891;-65
2023/09/12 00:17:28;;;;;;;31.30;20.80;;;;;;;16.79;100.00;99571.30;109404;1253;72614;-65
2023/09/12 00:20:15;;;;;;;29.00;19.90;;;;;;;16.79;100.00;99569.18;109317;1253;59441;-64
2023/09/12 00:23:01;;;;;;;30.20;21.70;;;;;;;16.79;100.00;99565.92;109243;1254;61035;-64
2023/09/12 00:25:49;;;;;;;30.10;22.20;;;;;;;16.80;100.00;99566.36;109385;1257;72755;-61
2023/09/12 00:28:37;;;;;;;29.70;21.50;;;;;;;16.81;99.94;99563.53;109538;1254;67615;-61
2023/09/12 00:31:24;;;;;;;24.10;16.70;;;;;;;16.81;99.82;99564.08;109537;1254;71415;-64
2023/09/12 00:34:16;;;;;;;29.10;18.60;;;;;;;16.81;99.79;99564.78;109257;1253;59672;-62
2023/09/12 00:37:04;;;;;;;27.70;19.70;;;;;;;16.81;99.64;99563.73;109429;1253;61120;-64
2023/09/12 00:39:51;;;;;;;26.20;19.70;;;;;;;16.83;99.39;99561.00;109375;1252;71873;-62
2023/09/12 00:42:37;;;;;;;25.90;18.20;;;;;;;16.84;99.05;99559.94;109461;1254;68660;-65
2023/09/12 00:45:24;;;;;;;25.00;17.10;;;;;;;16.87;98.81;99563.82;109209;1254;73534;-66
2023/09/12 00:48:12;;;;;;;24.80;16.50;;;;;;;16.89;98.55;99562.45;109394;1252;57988;-64
2023/09/12 00:50:59;;;;;;;24.20;16.50;;;;;;;16.92;98.31;99563.30;109429;1252;61365;-61
2023/09/12 00:53:46;;;;;;;23.70;17.00;;;;;;;16.93;98.18;99559.70;109526;1252;72774;-64
2023/09/12 00:56:33;;;;;;;22.80;16.20;;;;;;;16.95;97.88;99560.53;109323;1253;67784;-64
2023/09/12 00:59:21;;;;;;;21.00;15.10;;;;;;;16.97;97.76;99559.12;109392;1253;73140;-63
2023/09/12 01:02:07;;;;;;;23.10;15.80;;;;;;;16.97;97.71;99558.51;109356;1253;57985;-62
2023/09/12 01:04:54;;;;;;;20.20;14.80;;;;;;;17.00;97.34;99555.01;109435;1252;59177;-64
2023/09/12 01:07:43;;;;;;;20.60;15.50;;;;;;;17.00;97.22;99552.80;109446;1253;71566;-63
2023/09/12 01:10:29;;;;;;;21.10;15.00;;;;;;;17.02;97.12;99552.98;109426;1252;67673;-62
2023/09/12 01:13:16;;;;;;;25.50;15.10;;;;;;;17.04;96.86;99553.17;109525;1253;72550;-63
2023/09/12 01:16:03;;;;;;;22.80;14.00;;;;;;;17.06;96.84;99554.38;109489;1253;59379;-62
2023/09/12 01:18:49;;;;;;;19.50;14.60;;;;;;;17.08;96.71;99553.27;109315;1252;60281;-64
2023/09/12 01:22:16;;;;;;;21.20;14.70;;;;;;;17.09;96.50;99555.92;109527;1252;71968;-62
2023/09/12 01:25:30;;;;;;;18.60;13.00;;;;;;;17.12;96.46;99554.19;109438;1253;68760;-63
2023/09/12 01:28:17;;;;;;;18.10;13.30;;;;;;;17.16;96.25;99561.13;109449;1252;73445;-63
2023/09/12 01:31:05;;;;;;;18.70;11.90;;;;;;;17.20;95.98;99559.07;109366;1253;58266;-62
2023/09/12 01:33:57;;;;;;;22.10;14.40;;;;;;;17.23;95.64;99555.44;109414;1253;60154;-64
2023/09/12 01:36:43;;;;;;;22.00;14.30;;;;;;;17.26;95.40;99556.38;109428;1252;73990;-63
2023/09/12 01:39:30;;;;;;;19.50;14.70;;;;;;;17.26;95.34;99562.10;109419;1253;67912;-63
2023/09/12 01:42:20;;;;;;;20.20;13.40;;;;;;;17.26;95.15;99560.70;109355;1252;73609;-64
2023/09/12 01:45:11;;;;;;;18.90;13.00;;;;;;;17.25;95.08;99560.63;109392;1253;60503;-63
2023/09/12 01:47:59;;;;;;;17.90;12.00;;;;;;;17.27;95.18;99561.95;109399;1253;60350;-62
2023/09/12 01:50:46;;;;;;;20.50;13.80;;;;;;;17.30;94.91;99560.90;109372;1253;71496;-63
2023/09/12 01:53:35;;;;;;;18.40;12.70;;;;;;;17.33;94.71;99559.88;109513;1252;66654;-63
2023/09/12 01:56:23;;;;;;;18.80;13.00;;;;;;;17.35;94.32;99555.48;109398;1253;72543;-62
2023/09/12 01:59:09;;;;;;;19.50;13.30;;;;;;;17.37;94.11;99554.02;109425;1253;59740;-63
2023/09/12 02:01:55;;;;;;;18.70;12.70;;;;;;;17.41;93.97;99555.90;109407;1253;60190;-62
2023/09/12 02:04:57;;;;;;;19.10;13.80;;;;;;;17.42;93.76;99555.60;109498;1252;71783;-63
2023/09/12 02:07:44;;;;;;;17.30;12.20;;;;;;;17.43;93.65;99551.96;109249;1252;65628;-62
2023/09/12 02:10:32;;;;;;;16.60;12.00;;;;;;;17.47;93.58;99554.16;109436;1252;71279;-62
2023/09/12 02:13:18;;;;;;;17.80;13.00;;;;;;;17.48;93.55;99555.34;109435;1253;59552;-61
2023/09/12 02:16:04;;;;;;;17.60;12.10;;;;;;;17.44;93.70;99554.64;109351;1252;60389;-62
2023/09/12 02:18:51;;;;;;;17.60;12.20;;;;;;;17.47;93.82;99561.70;109343;1252;72957;-63
2023/09/12 02:21:37;;;;;;;15.80;11.50;;;;;;;17.49;94.07;99561.48;109236;1253;66940;-65
2023/09/12 02:24:23;;;;;;;16.60;11.70;;;;;;;17.53;94.28;99566.57;109361;1253;72741;-63
2023/09/12 02:27:10;;;;;;;19.60;11.90;;;;;;;17.56;94.27;99559.76;109526;1252;58600;-63
2023/09/12 02:29:57;;;;;;;18.70;11.90;;;;;;;17.59;94.30;99563.08;109285;1252;59088;-62
2023/09/12 02:32:43;;;;;;;16.80;12.00;;;;;;;17.61;94.09;99561.75;109504;1252;73866;-62
2023/09/12 02:35:29;;;;;;;17.00;11.70;;;;;;;17.61;93.87;99558.35;109569;1252;68825;-63
2023/09/12 02:38:18;;;;;;;17.00;12.30;;;;;;;17.59;93.81;99559.47;109532;1252;72732;-62
2023/09/12 02:41:04;;;;;;;17.40;11.70;;;;;;;17.57;93.80;99560.18;109313;1256;57238;-62
2023/09/12 02:43:50;;;;;;;15.60;10.40;;;;;;;17.56;94.23;99556.98;109283;1253;58978;-63
2023/09/12 02:46:37;;;;;;;15.80;11.60;;;;;;;17.55;94.28;99559.56;109387;1253;71715;-62
2023/09/12 02:49:23;;;;;;;16.20;11.00;;;;;;;17.54;94.67;99553.30;109308;1252;68710;-63
2023/09/12 02:52:10;;;;;;;14.80;10.70;;;;;;;17.55;94.89;99556.97;109482;1252;72533;-62
2023/09/12 02:54:56;;;;;;;17.60;11.00;;;;;;;17.56;95.07;99556.57;109372;1255;59450;-64
2023/09/12 02:57:42;;;;;;;14.60;10.20;;;;;;;17.54;95.36;99552.48;109437;1253;60391;-63
2023/09/12 03:00:29;;;;;;;19.70;12.50;;;;;;;17.57;95.39;99554.77;109404;1253;74080;-63
2023/09/12 03:03:17;;;;;;;17.30;11.10;;;;;;;17.58;95.46;99553.99;109456;1253;68755;-62
2023/09/12 03:06:03;;;;;;;16.10;11.00;;;;;;;17.60;95.38;99558.73;109442;1252;73555;-64
2023/09/12 03:08:50;;;;;;;16.70;11.10;;;;;;;17.63;95.50;99561.63;109401;1253;59752;-64
2023/09/12 03:11:37;;;;;;;17.40;11.50;;;;;;;17.66;95.51;99561.35;109429;1254;59436;-62
2023/09/12 03:14:23;;;;;;;17.10;11.80;;;;;;;17.70;94.97;99565.33;109422;1253;71825;-63
2023/09/12 03:17:09;;;;;;;18.50;11.60;;;;;;;17.72;94.84;99567.80;109568;1252;66815;-63
2023/09/12 03:19:56;;;;;;;16.80;11.00;;;;;;;17.73;94.85;99565.92;109386;1253;72570;-62
2023/09/12 03:22:43;;;;;;;15.70;9.80;;;;;;;17.75;94.83;99561.05;109409;1253;60063;-63
2023/09/12 03:25:29;;;;;;;16.00;11.00;;;;;;;17.75;94.75;99559.20;109531;1252;61225;-61
2023/09/12 03:28:15;;;;;;;13.50;9.80;;;;;;;17.75;94.89;99560.10;109406;1252;72808;-64
2023/09/12 03:31:13;;;;;;;16.30;11.10;;;;;;;17.75;94.81;99555.67;109358;1253;66625;-62
2023/09/12 03:34:01;;;;;;;15.00;10.60;;;;;;;17.72;94.86;99554.19;109417;1253;73786;-64
2023/09/12 03:36:47;;;;;;;15.90;10.20;;;;;;;17.70;94.98;99553.48;109376;1253;58847;-66
2023/09/12 03:39:34;;;;;;;15.50;10.70;;;;;;;17.67;94.97;99555.45;109393;1254;61306;-62
2023/09/12 03:42:21;;;;;;;17.10;11.20;;;;;;;17.66;94.90;99558.30;109467;1254;73256;-62
2023/09/12 03:45:08;;;;;;;21.50;11.00;;;;;;;17.63;95.04;99558.75;109427;1253;67758;-64
2023/09/12 03:47:54;;;;;;;15.40;11.20;;;;;;;17.62;95.17;99556.23;109378;1252;72397;-62
2023/09/12 03:50:40;;;;;;;16.90;11.50;;;;;;;17.60;95.36;99561.79;109518;1252;58390;-67
2023/09/12 03:53:27;;;;;;;16.70;11.10;;;;;;;17.60;95.47;99558.39;109316;1254;59660;-63
2023/09/12 03:56:15;;;;;;;16.80;11.30;;;;;;;17.60;95.57;99557.14;109361;1254;73121;-63
2023/09/12 03:59:02;;;;;;;17.90;11.60;;;;;;;17.60;95.31;99556.95;109421;1254;67870;-65
2023/09/12 04:01:49;;;;;;;15.60;10.90;;;;;;;17.60;95.21;99553.77;109407;1253;71261;-63
2023/09/12 04:04:35;;;;;;;18.00;12.40;;;;;;;17.60;95.37;99558.09;109214;1258;59475;-64
2023/09/12 04:07:22;;;;;;;16.70;11.60;;;;;;;17.58;95.27;99555.98;109354;1254;58942;-63
2023/09/12 04:10:09;;;;;;;16.80;11.50;;;;;;;17.57;95.30;99556.80;109387;1253;72832;-67
2023/09/12 04:12:55;;;;;;;16.40;11.30;;;;;;;17.57;95.28;99556.83;109395;1252;65461;-64
2023/09/12 04:15:41;;;;;;;16.40;10.60;;;;;;;17.57;95.54;99557.14;109472;1252;72502;-65
2023/09/12 04:18:28;;;;;;;15.50;10.60;;;;;;;17.60;95.74;99561.13;109318;1253;58063;-63
2023/09/12 04:21:15;;;;;;;16.20;11.40;;;;;;;17.63;95.72;99557.33;109303;1253;60050;-62
2023/09/12 04:24:02;;;;;;;15.70;11.20;;;;;;;17.68;95.63;99554.14;109370;1252;73930;-64
2023/09/12 04:26:48;;;;;;;15.80;11.20;;;;;;;17.69;95.10;99544.52;109374;1252;66773;-63
2023/09/12 04:29:35;;;;;;;16.10;11.10;;;;;;;17.75;94.73;99544.88;109368;1252;71462;-62
2023/09/12 04:32:23;;;;;;;21.50;11.90;;;;;;;17.77;94.44;99545.67;109348;1253;57783;-63
2023/09/12 04:35:09;;;;;;;18.60;11.90;;;;;;;17.80;94.17;99545.58;109352;1254;58885;-63
2023/09/12 04:37:55;;;;;;;16.00;11.40;;;;;;;17.81;93.87;99548.05;109206;1253;242719;-63
2023/09/12 04:40:42;;;;;;;17.90;12.30;;;;;;;17.82;93.77;99545.67;109417;1253;68788;-60
2023/09/12 04:43:28;;;;;;;17.70;11.60;;;;;;;17.83;93.36;99545.35;109366;1254;72635;-66
2023/09/12 04:46:14;;;;;;;20.50;12.10;;;;;;;17.85;93.28;99544.97;109378;1254;59454;-63
2023/09/12 04:49:01;;;;;;;16.10;11.70;;;;;;;17.86;92.84;99541.23;109378;1254;60434;-63
2023/09/12 04:51:47;;;;;;;17.90;12.10;;;;;;;17.88;92.59;99542.23;109123;1255;71618;-63
2023/09/12 04:54:33;;;;;;;17.50;12.60;;;;;;;17.93;92.48;99543.54;109432;1253;66566;-62
2023/09/12 04:57:20;;;;;;;17.60;11.20;;;;;;;17.97;92.21;99543.33;109331;1254;70434;-63
2023/09/12 05:00:08;;;;;;;17.60;12.20;;;;;;;18.03;91.98;99543.55;109232;1253;59493;-64
2023/09/12 05:02:54;;;;;;;17.00;12.10;;;;;;;18.09;91.58;99542.41;109436;1254;60194;-63
2023/09/12 05:05:41;;;;;;;16.50;11.50;;;;;;;18.13;91.15;99538.99;109315;1253;71578;-64
2023/09/12 05:08:28;;;;;;;18.20;11.70;;;;;;;18.16;90.75;99543.19;109413;1254;66805;-62
2023/09/12 05:11:15;;;;;;;15.20;10.60;;;;;;;18.19;90.63;99542.82;109337;1254;72904;-64
2023/09/12 05:14:03;;;;;;;17.90;12.30;;;;;;;18.24;90.26;99547.43;109371;1253;60486;-62
2023/09/12 05:16:49;;;;;;;16.70;11.50;;;;;;;18.31;89.97;99548.07;109382;1254;59255;-63
2023/09/12 05:19:36;;;;;;;20.40;11.80;;;;;;;18.37;89.53;99549.13;109290;1254;72893;-63
2023/09/12 05:22:22;;;;;;;16.00;11.50;;;;;;;18.44;89.22;99553.84;109440;1253;67898;-64
2023/09/12 05:25:09;;;;;;;15.60;11.00;;;;;;;18.52;88.71;99552.22;109318;1254;73273;-66
2023/09/12 05:27:55;;;;;;;16.90;11.30;;;;;;;18.57;88.31;99552.16;109443;1254;57239;-63
2023/09/12 05:30:43;;;;;;;17.20;11.50;;;;;;;18.63;87.77;99555.34;109367;1253;60327;-63
2023/09/12 05:33:29;;;;;;;14.70;10.90;;;;;;;18.70;87.09;99555.02;109362;1252;73095;-65
2023/09/12 05:36:19;;;;;;;15.70;10.60;;;;;;;18.78;86.68;99554.65;109353;1253;68707;-66
2023/09/12 05:39:06;;;;;;;16.90;10.30;;;;;;;18.87;86.27;99552.20;109334;1254;73403;-63
2023/09/12 05:41:52;;;;;;;17.40;10.60;;;;;;;18.97;85.58;99546.88;109460;1253;57811;-64
2023/09/12 05:44:39;;;;;;;15.10;10.50;;;;;;;19.05;85.34;99546.04;109410;1254;58086;-65
2023/09/12 05:47:26;;;;;;;18.70;10.80;;;;;;;19.15;84.94;99548.69;109412;1252;73856;-64
2023/09/12 05:50:12;;;;;;;16.50;11.20;;;;;;;19.22;84.55;99548.25;109485;1252;68433;-62
2023/09/12 05:52:58;;;;;;;16.30;11.00;;;;;;;19.33;84.08;99550.88;109452;1252;72748;-66
2023/09/12 05:55:45;;;;;;;17.30;10.70;;;;;;;19.44;83.56;99550.25;109375;1253;59530;-64
2023/09/12 05:58:31;;;;;;;18.90;11.00;;;;;;;19.55;83.03;99555.04;109311;1253;60383;-64
2023/09/12 06:01:17;;;;;;;15.40;10.00;;;;;;;19.66;82.50;99553.34;109498;1252;71930;-66
2023/09/12 06:04:04;;;;;;;18.70;10.40;;;;;;;19.80;81.64;99559.39;109346;1252;67856;-63
2023/09/12 06:06:51;;;;;;;17.00;10.80;;;;;;;19.89;80.91;99560.54;109298;1253;70889;-65
2023/09/12 06:09:38;;;;;;;15.80;9.60;;;;;;;19.99;79.85;99561.55;109426;1252;59198;-64
2023/09/12 06:12:24;;;;;;;16.60;10.20;;;;;;;20.10;79.34;99564.46;109440;1252;61106;-63
2023/09/12 06:15:11;;;;;;;16.30;9.70;;;;;;;20.22;78.70;99559.89;109514;1252;71958;-64
2023/09/12 06:17:57;;;;;;;15.40;10.10;;;;;;;20.37;77.43;99559.59;109349;1252;67825;-64
2023/09/12 06:20:44;;;;;;;19.90;9.80;;;;;;;20.58;77.02;99558.72;109306;1253;73716;-67
2023/09/12 06:23:30;;;;;;;16.20;10.10;;;;;;;20.94;76.00;99557.44;109456;1252;57597;-67
2023/09/12 06:26:16;;;;;;;18.00;10.40;;;;;;;21.79;72.92;99558.39;109446;1252;61639;-63
2023/09/12 06:29:03;;;;;;;15.90;9.60;;;;;;;23.31;68.53;99556.91;109516;1253;73001;-63
2023/09/12 06:31:49;;;;;;;16.20;9.60;;;;;;;24.92;62.37;99552.71;109487;1252;66486;-63
2023/09/12 06:34:35;;;;;;;19.80;8.60;;;;;;;26.37;57.99;99551.05;109268;1253;72716;-67
2023/09/12 06:37:21;;;;;;;15.30;7.90;;;;;;;27.73;53.66;99548.79;109488;1252;58648;-64
2023/09/12 06:40:08;;;;;;;16.00;8.10;;;;;;;28.89;49.11;99544.95;109486;1252;61208;-65
2023/09/12 06:42:55;;;;;;;14.20;7.70;;;;;;;30.02;47.35;99550.38;109508;1252;71475;-63
2023/09/12 06:45:41;;;;;;;13.30;7.60;;;;;;;31.05;44.30;99547.80;109521;1252;67088;-65
2023/09/12 06:48:27;;;;;;;15.10;7.10;;;;;;;31.91;42.30;99542.92;109361;1252;72920;-67
2023/09/12 06:51:14;;;;;;;15.20;6.90;;;;;;;32.65;39.47;99545.33;109502;1252;57447;-64
2023/09/12 06:54:04;;;;;;;13.30;7.00;;;;;;;33.21;37.51;99547.60;109378;1252;61242;-64
2023/09/12 06:56:50;;;;;;;14.60;7.00;;;;;;;33.83;36.62;99543.92;109402;1252;73909;-69
2023/09/12 06:59:37;;;;;;;14.00;6.80;;;;;;;34.43;35.17;99545.40;109360;1252;67947;-65
2023/09/12 07:02:24;;;;;;;13.70;6.50;;;;;;;34.93;33.81;99551.14;109256;1252;72663;-64
2023/09/12 07:05:10;;;;;;;12.00;6.10;;;;;;;35.50;32.93;99545.64;109352;1253;57349;-69
2023/09/12 07:07:57;;;;;;;16.40;6.70;;;;;;;35.83;31.73;99543.56;109348;1253;60138;-66
2023/09/12 07:10:45;;;;;;;11.30;6.10;;;;;;;36.11;30.52;99538.98;109491;1252;72257;-66
2023/09/12 07:13:33;;;;;;;12.30;6.20;;;;;;;36.18;30.24;99540.41;109485;1252;68045;-65
2023/09/12 07:16:20;;;;;;;11.30;6.00;;;;;;;36.31;29.69;99540.30;109481;1252;73755;-65
2023/09/12 07:19:06;;;;;;;13.40;7.50;;;;;;;36.35;29.42;99542.19;109370;1253;57751;-64
2023/09/12 07:21:52;;;;;;;15.00;6.50;;;;;;;36.51;29.33;99540.79;109351;1253;60249;-66
2023/09/12 07:24:39;;;;;;;17.20;5.70;;;;;;;36.69;28.34;99542.96;109527;1252;73857;-66
2023/09/12 07:27:25;;;;;;;10.60;6.30;;;;;;;36.59;28.68;99541.88;109529;1252;68712;-64
2023/09/12 07:30:12;;;;;;;13.10;6.20;;;;;;;36.82;28.65;99538.99;109327;1252;72763;-66
2023/09/12 07:32:58;;;;;;;11.00;5.50;;;;;;;37.09;28.39;99537.77;109177;1253;57339;-66
2023/09/12 07:35:46;;;;;;;12.00;5.50;;;;;;;37.38;27.85;99537.21;109368;1252;60262;-64
2023/09/12 07:38:35;;;;;;;11.30;6.10;;;;;;;37.63;27.95;99537.77;109507;1252;72868;-64
2023/09/12 07:41:21;;;;;;;13.60;6.30;;;;;;;38.14;27.60;99539.90;109462;1252;67663;-65
2023/09/12 07:44:10;;;;;;;11.70;5.50;;;;;;;38.56;26.70;99546.55;109531;1252;72717;-63
2023/09/12 07:46:57;;;;;;;11.40;5.50;;;;;;;38.68;26.23;99547.02;109487;1252;57329;-64
2023/09/12 07:49:43;;;;;;;9.60;5.20;;;;;;;38.80;25.78;99549.84;109519;1253;59384;-68
2023/09/12 07:52:30;;;;;;;10.70;5.80;;;;;;;38.65;25.85;99548.91;109317;1253;73047;-63
2023/09/12 07:55:16;;;;;;;12.20;5.60;;;;;;;38.76;25.72;99549.21;109311;1252;68681;-63
2023/09/12 07:58:03;;;;;;;12.50;5.90;;;;;;;38.45;25.41;99545.89;109463;1253;73496;-65
2023/09/12 08:00:49;;;;;;;11.40;5.10;;;;;;;38.28;25.80;99542.39;109414;1253;58004;-64
2023/09/12 08:03:38;;;;;;;12.50;5.90;;;;;;;38.31;26.13;99544.48;109493;1252;60140;-67
2023/09/12 08:06:25;;;;;;;12.30;5.60;;;;;;;38.16;26.05;99545.27;109524;1252;72732;-63
2023/09/12 08:09:11;;;;;;;10.60;5.60;;;;;;;38.45;25.91;99549.39;109322;1253;66539;-66
2023/09/12 08:11:58;;;;;;;12.80;5.60;;;;;;;38.71;25.66;99551.67;109328;1253;71415;-64
2023/09/12 08:14:45;;;;;;;10.70;5.80;;;;;;;38.94;25.53;99556.15;109341;1253;58004;-65
2023/09/12 08:17:32;;;;;;;10.00;5.70;;;;;;;38.57;25.57;99553.52;109462;1253;58739;-65
2023/09/12 08:20:20;;;;;;;16.00;5.70;;;;;;;38.77;25.97;99559.28;109332;1252;72891;-64
2023/09/12 08:23:08;;;;;;;12.00;5.40;;;;;;;39.14;25.01;99557.80;109351;1253;66559;-65
2023/09/12 08:25:54;;;;;;;12.80;5.20;;;;;;;39.25;24.86;99555.76;109468;1252;72729;-64
2023/09/12 08:28:40;;;;;;;12.30;5.40;;;;;;;39.60;24.44;99559.34;109427;1253;58270;-64
2023/09/12 08:31:27;;;;;;;10.70;5.20;;;;;;;39.74;23.93;99563.80;109486;1253;58733;-64
2023/09/12 08:34:13;;;;;;;12.10;4.80;;;;;;;40.09;23.65;99558.14;109526;1252;72961;-64
2023/09/12 08:37:00;;;;;;;14.60;4.80;;;;;;;40.64;23.09;99558.62;109507;1252;68170;-63
2023/09/12 08:39:46;;;;;;;11.50;5.00;;;;;;;41.00;22.78;99560.98;109515;1252;72711;-67
2023/09/12 08:42:36;;;;;;;11.60;5.00;;;;;;;41.14;22.39;99559.98;109507;1252;57344;-64
2023/09/12 08:45:22;;;;;;;11.70;5.10;;;;;;;41.36;22.55;99555.59;109488;1252;60277;-65
2023/09/12 08:48:10;;;;;;;11.30;4.70;;;;;;;41.65;22.00;99554.08;109456;1252;71811;-65
2023/09/12 08:50:57;;;;;;;12.20;5.00;;;;;;;41.91;21.39;99557.52;109280;1253;67661;-64
2023/09/12 08:53:44;;;;;;;11.40;4.80;;;;;;;42.05;21.30;99561.48;109211;1253;73139;-62
2023/09/12 08:56:33;;;;;;;12.80;4.40;;;;;;;42.01;20.94;99559.80;109520;1252;57846;-64
2023/09/12 08:59:20;;;;;;;9.70;4.20;;;;;;;42.08;20.84;99553.10;109247;1252;60308;-63
2023/09/12 09:02:09;;;;;;;10.90;4.60;;;;;;;42.23;20.64;99555.76;109501;1252;71945;-64
2023/09/12 09:04:55;;;;;;;13.10;4.90;;;;;;;42.08;20.61;99555.74;109341;1252;68104;-63
2023/09/12 09:07:42;;;;;;;9.40;4.70;;;;;;;41.71;20.89;99556.92;109430;1253;73550;-64
2023/09/12 09:10:32;;;;;;;8.00;4.30;;;;;;;41.68;21.20;99551.06;109473;1253;57913;-67
2023/09/12 09:13:36;;;;;;;11.80;4.50;;;;;;;41.43;21.03;99558.84;109498;1252;59658;-64
2023/09/12 09:16:23;;;;;;;11.40;4.40;;;;;;;41.29;21.02;99552.44;109498;1252;74065;-63
2023/09/12 09:19:11;;;;;;;8.30;4.40;;;;;;;40.98;20.91;99550.20;109369;1252;67772;-63
2023/09/12 09:22:06;;;;;;;8.40;4.30;;;;;;;40.55;21.61;99545.00;109439;1252;71213;-64
2023/09/12 09:25:11;;;;;;;10.50;4.60;;;;;;;40.27;21.40;99545.63;109472;1252;57400;-64
2023/09/12 09:27:58;;;;;;;10.10;4.40;;;;;;;39.92;22.04;99548.44;109280;1252;59082;-64
2023/09/12 09:30:47;;;;;;;8.00;4.60;;;;;;;39.93;21.88;99544.59;109354;1253;74257;-66
2023/09/12 09:33:38;;;;;;;10.50;4.70;;;;;;;40.06;21.87;99537.39;109516;1252;66632;-63
2023/09/12 09:36:25;;;;;;;8.50;4.30;;;;;;;40.14;21.49;99539.16;109345;1252;73054;-63
2023/09/12 09:39:12;;;;;;;8.20;4.40;;;;;;;40.51;21.34;99533.31;109296;1252;58928;-65
2023/09/12 09:41:59;;;;;;;9.00;4.50;;;;;;;40.48;20.56;99531.91;109380;1252;60167;-63
2023/09/12 09:44:45;;;;;;;8.80;4.40;;;;;;;40.50;20.85;99533.35;109563;1253;73006;-65
2023/09/12 09:47:32;;;;;;;10.60;4.40;;;;;;;40.26;20.70;99531.92;109521;1253;66722;-64
2023/09/12 09:50:19;;;;;;;10.60;4.30;;;;;;;40.76;20.67;99531.70;109342;1253;74042;-64
2023/09/12 09:53:08;;;;;;;11.50;4.50;;;;;;;41.38;19.95;99526.09;109424;1252;58680;-65
2023/09/12 09:56:15;;;;;;;9.80;4.30;;;;;;;41.28;19.63;99522.58;109347;1252;60207;-65
2023/09/12 09:59:02;;;;;;;10.20;4.30;;;;;;;41.42;19.61;99523.12;109257;1253;72977;-65
2023/09/12 10:01:54;;;;;;;10.30;4.00;;;;;;;41.98;18.99;99522.02;109331;1252;68032;-65
2023/09/12 10:04:43;;;;;;;11.80;4.50;;;;;;;41.97;18.70;99516.40;109282;1253;71682;-64
2023/09/12 10:07:34;;;;;;;9.50;4.50;;;;;;;41.86;18.75;99515.84;109325;1253;57209;-64
2023/09/12 10:10:24;;;;;;;8.60;4.20;;;;;;;41.45;18.60;99510.64;109214;1253;60351;-64
2023/09/12 10:13:10;;;;;;;13.50;4.80;;;;;;;41.63;18.86;99507.15;109317;1252;72009;-66
2023/09/12 10:15:58;;;;;;;8.50;4.00;;;;;;;42.10;18.55;99507.43;109487;1253;67958;-65
2023/09/12 10:18:58;;;;;;;8.20;4.30;;;;;;;42.67;18.35;99505.48;109449;1253;73516;-63
2023/09/12 10:22:07;;;;;;;7.90;4.30;;;;;;;43.04;18.20;99504.61;109325;1253;58072;-65
2023/09/12 10:24:56;;;;;;;10.80;4.60;;;;;;;43.38;17.93;99509.84;109330;1253;60075;-64
2023/09/12 10:27:42;;;;;;;10.30;4.30;;;;;;;43.66;17.77;99505.83;109278;1252;72796;-64
2023/09/12 10:30:30;;;;;;;8.30;4.60;;;;;;;43.65;17.80;99505.29;109518;1253;68788;-65
2023/09/12 10:33:17;;;;;;;8.20;4.10;;;;;;;43.39;17.29;99501.27;109520;1253;74309;-64
2023/09/12 10:36:05;;;;;;;9.20;3.90;;;;;;;42.60;17.48;99494.63;109534;1252;59260;-63
2023/09/12 10:38:54;;;;;;;8.10;4.00;;;;;;;42.38;18.06;99498.55;109304;1253;60212;-64
2023/09/12 10:41:41;;;;;;;8.50;4.40;;;;;;;42.42;17.93;99490.34;109280;1252;71636;-67
2023/09/12 10:44:29;;;;;;;12.30;4.80;;;;;;;42.40;18.27;99487.88;109492;1253;68830;-65
2023/09/12 10:47:16;;;;;;;9.80;4.30;;;;;;;42.54;17.95;99482.85;109508;1252;71252;-63
2023/09/12 10:50:02;;;;;;;9.90;4.00;;;;;;;42.60;17.93;99479.44;109515;1252;57406;-66
2023/09/12 10:52:49;;;;;;;9.80;4.40;;;;;;;42.02;18.34;99475.27;109466;1253;60832;-62
2023/09/12 10:55:35;;;;;;;9.60;4.20;;;;;;;41.89;17.76;99468.23;109287;1252;72279;-66
2023/09/12 10:58:21;;;;;;;9.00;4.60;;;;;;;41.49;17.92;99476.08;109480;1253;68762;-65
2023/09/12 11:01:26;;;;;;;10.20;4.70;;;;;;;40.80;18.36;99476.98;109512;1253;72731;-65
2023/09/12 11:04:24;;;;;;;9.00;4.50;;;;;;;40.55;18.68;99475.57;109541;1253;58406;-64
2023/09/12 11:07:49;;;;;;;10.40;4.60;;;;;;;40.04;18.51;99473.11;109526;1253;60246;-66
2023/09/12 11:10:36;;;;;;;10.10;5.00;;;;;;;39.60;19.87;99474.45;109495;1252;71155;-64
2023/09/12 11:13:39;;;;;;;9.00;4.70;;;;;;;39.89;20.22;99470.80;109327;1253;68012;-63
2023/09/12 11:16:26;;;;;;;9.30;4.40;;;;;;;39.99;19.73;99466.11;109348;1253;72673;-64
2023/09/12 11:19:26;;;;;;;9.90;4.50;;;;;;;39.90;19.59;99467.29;109324;1253;58752;-65
2023/09/12 11:22:31;;;;;;;8.70;4.70;;;;;;;39.46;19.34;99472.06;109344;1258;58382;-66
2023/09/12 11:25:18;;;;;;;13.80;5.00;;;;;;;38.65;20.18;99475.45;109500;1253;73543;-64
2023/09/12 11:28:05;;;;;;;8.70;4.80;;;;;;;38.55;20.45;99478.66;109527;1253;68814;-66
2023/09/12 11:30:57;;;;;;;10.00;4.80;;;;;;;38.59;20.99;99477.98;109410;1253;73696;-64
2023/09/12 11:33:44;;;;;;;12.10;5.20;;;;;;;38.36;21.08;99477.02;109505;1253;59014;-64
2023/09/12 11:36:38;;;;;;;10.30;4.80;;;;;;;38.33;21.64;99472.83;109540;1253;60089;-64
2023/09/12 11:39:28;;;;;;;11.70;5.20;;;;;;;38.32;21.21;99471.77;109262;1253;73468;-64
2023/09/12 11:42:15;;;;;;;13.90;5.20;;;;;;;37.87;21.30;99472.46;109490;1253;67677;-64
2023/09/12 11:45:08;;;;;;;12.40;5.30;;;;;;;37.42;21.81;99475.87;109536;1252;73586;-66
2023/09/12 11:47:55;;;;;;;8.90;5.30;;;;;;;37.03;22.63;99470.95;109223;1252;58593;-64
2023/09/12 11:50:41;;;;;;;10.50;4.90;;;;;;;36.97;22.51;99477.79;109552;1253;61115;-64
2023/09/12 11:53:30;;;;;;;9.80;5.30;;;;;;;37.01;22.55;99476.55;109555;1252;74007;-65
2023/09/12 11:56:17;;;;;;;10.00;5.20;;;;;;;36.97;22.83;99475.02;109463;1253;66576;-64
2023/09/12 11:59:03;;;;;;;10.10;5.30;;;;;;;36.79;22.68;99475.59;109540;1253;72320;-64
2023/09/12 12:01:50;;;;;;;9.60;5.30;;;;;;;36.66;22.73;99471.91;109282;1253;57328;-64
2023/09/12 12:04:37;;;;;;;11.90;5.40;;;;;;;36.24;23.13;99470.41;109413;1253;61142;-62
2023/09/12 12:07:24;;;;;;;9.50;5.10;;;;;;;36.01;23.77;99469.00;109508;1253;74073;-62
2023/09/12 12:10:10;;;;;;;9.00;5.70;;;;;;;35.51;24.13;99464.18;109513;1253;67189;-64
2023/09/12 12:12:56;;;;;;;11.10;5.70;;;;;;;34.96;24.93;99465.44;109474;1256;72666;-62
2023/09/12 12:15:43;;;;;;;10.40;5.80;;;;;;;34.69;25.57;99471.27;109454;1253;58737;-62
2023/09/12 12:18:30;;;;;;;10.60;6.00;;;;;;;34.31;26.18;99474.66;109329;1253;60084;-63
2023/09/12 12:21:17;;;;;;;10.60;6.00;;;;;;;33.91;26.30;99473.24;109369;1252;74046;-64
2023/09/12 12:24:04;;;;;;;11.50;6.60;;;;;;;33.48;27.49;99474.15;109551;1253;67898;-63
2023/09/12 12:26:53;;;;;;;10.40;6.30;;;;;;;33.05;27.93;99474.64;109302;1253;71559;-62
2023/09/12 12:29:39;;;;;;;10.60;6.60;;;;;;;32.50;28.47;99473.38;109259;1253;57686;-63
2023/09/12 12:32:25;;;;;;;11.50;7.00;;;;;;;32.20;29.23;99475.02;109295;1253;58900;-63
2023/09/12 12:35:20;;;;;;;12.20;6.60;;;;;;;31.99;29.49;99476.23;109255;1253;71660;-64
2023/09/12 12:38:21;;;;;;;11.50;6.70;;;;;;;31.86;30.11;99477.99;109432;1253;67757;-61
2023/09/12 12:41:07;;;;;;;11.40;6.50;;;;;;;31.70;29.98;99475.02;109489;1253;73640;-62
2023/09/12 12:43:58;;;;;;;11.60;6.60;;;;;;;31.58;30.47;99472.63;109233;1254;57968;-64
2023/09/12 12:46:54;;;;;;;13.10;7.20;;;;;;;31.42;30.81;99469.78;109512;1253;58668;-64
2023/09/12 12:49:41;;;;;;;12.70;6.50;;;;;;;31.33;30.68;99468.45;109311;1252;73835;-63